createdAt,value
2023-03-07T00:04:13.361Z,12.07
2023-03-07T00:09:34.976Z,11.90
2023-03-07T00:14:38.566Z,11.77
2023-03-07T00:19:44.793Z,12.57
2023-03-07T00:24:49.366Z,12.33
2023-03-07T00:29:52.645Z,11.43
2023-03-07T00:34:57.345Z,12.40
2023-03-07T00:40:00.501Z,11.40
2023-03-07T00:45:04.317Z,11.57
2023-03-07T00:50:09.876Z,11.50
2023-03-07T00:55:13.268Z,11.30
2023-03-07T01:00:16.677Z,9.90
2023-03-07T01:05:21.295Z,10.80
2023-03-07T01:10:26.037Z,11.33
2023-03-07T01:15:29.451Z,11.57
2023-03-07T01:20:35.759Z,10.87
2023-03-07T01:25:39.739Z,10.60
2023-03-07T01:30:43.025Z,10.23
2023-03-07T01:35:48.022Z,10.87
2023-03-07T01:40:51.449Z,11.67
2023-03-07T01:46:53.423Z,11.13
2023-03-07T01:52:04.388Z,11.13
2023-03-07T01:57:07.983Z,11.30
2023-03-07T02:02:14.632Z,11.00
2023-03-07T02:07:24.335Z,10.83
2023-03-07T02:12:27.792Z,11.13
2023-03-07T02:17:33.932Z,11.13
2023-03-07T02:22:41.607Z,11.17
2023-03-07T02:27:48.661Z,11.50
2023-03-07T02:32:51.942Z,11.83
2023-03-07T02:37:58.899Z,11.70
2023-03-07T02:43:10.331Z,12.03
2023-03-07T02:48:14.258Z,12.07
2023-03-07T02:53:18.507Z,11.97
2023-03-07T02:58:23.238Z,11.90
2023-03-07T03:03:26.322Z,11.07
2023-03-07T03:08:29.495Z,10.90
2023-03-07T03:13:34.574Z,11.00
2023-03-07T03:18:39.415Z,11.03
2023-03-07T03:23:42.544Z,11.40
2023-03-07T03:28:47.054Z,10.57
2023-03-07T03:33:52.646Z,9.33
2023-03-07T03:38:58.061Z,10.33
2023-03-07T03:44:02.741Z,10.20
2023-03-07T03:49:06.590Z,10.00
2023-03-07T03:54:09.874Z,10.03
2023-03-07T03:59:14.594Z,10.00
2023-03-07T04:04:17.941Z,9.80
2023-03-07T04:09:21.052Z,10.50
2023-03-07T04:14:25.588Z,9.07
2023-03-07T04:19:29.562Z,9.60
2023-03-07T04:24:32.823Z,9.53
2023-03-07T04:29:37.518Z,9.63
2023-03-07T04:34:40.974Z,9.40
2023-03-07T04:39:44.389Z,9.10
2023-03-07T04:44:49.020Z,8.93
2023-03-07T04:49:52.922Z,8.73
2023-03-07T04:54:56.231Z,8.60
2023-03-07T05:00:01.438Z,8.33
2023-03-07T05:05:05.600Z,9.30
2023-03-07T05:10:10.102Z,8.43
2023-03-07T05:15:14.880Z,7.33
2023-03-07T05:20:19.092Z,9.47
2023-03-07T05:25:22.299Z,8.80
2023-03-07T05:30:27.202Z,7.80
2023-03-07T05:35:30.417Z,7.93
2023-03-07T05:40:33.629Z,7.27
2023-03-07T05:45:38.899Z,6.90
2023-03-07T05:50:42.746Z,6.73
2023-03-07T05:55:46.127Z,5.43
2023-03-07T06:00:52.219Z,5.63
2023-03-07T06:05:55.843Z,5.43
2023-03-07T06:10:59.056Z,5.43
2023-03-07T06:16:03.970Z,5.20
2023-03-07T06:21:11.256Z,5.20
2023-03-07T06:26:15.276Z,4.47
2023-03-07T06:31:21.491Z,3.37
2023-03-07T06:36:24.833Z,5.17
2023-03-07T06:41:28.264Z,5.27
2023-03-07T06:46:36.692Z,4.90
2023-03-07T06:51:43.286Z,4.73
2023-03-07T06:56:46.878Z,4.70
2023-03-07T07:01:51.482Z,4.80
2023-03-07T07:06:58.392Z,4.50
2023-03-07T07:12:01.930Z,4.13
2023-03-07T07:17:06.787Z,4.23
2023-03-07T07:22:12.145Z,4.43
2023-03-07T07:27:15.308Z,4.50
2023-03-07T07:32:20.205Z,3.93
2023-03-07T07:37:24.204Z,4.07
2023-03-07T07:42:28.786Z,4.10
2023-03-07T07:47:37.545Z,3.30
2023-03-07T07:52:44.715Z,4.23
2023-03-07T07:57:48.010Z,4.50
2023-03-07T08:02:53.136Z,3.37
2023-03-07T08:07:57.536Z,3.53
2023-03-07T08:13:00.631Z,3.33
2023-03-07T08:18:05.150Z,3.10
2023-03-07T08:23:09.423Z,3.40
2023-03-07T08:28:12.850Z,3.10
2023-03-07T08:33:17.632Z,3.60
2023-03-07T08:38:21.619Z,3.20
2023-03-07T08:43:25.562Z,3.43
2023-03-07T08:48:30.251Z,3.00
2023-03-07T08:53:33.574Z,3.27
2023-03-07T08:58:38.429Z,3.23
2023-03-07T09:03:44.299Z,3.13
2023-03-07T09:08:48.269Z,3.00
2023-03-07T09:13:53.252Z,3.57
2023-03-07T09:18:58.061Z,3.27
2023-03-07T09:24:01.256Z,3.80
2023-03-07T09:29:05.891Z,3.47
2023-03-07T09:34:10.799Z,3.60
2023-03-07T09:39:14.678Z,4.13
2023-03-07T09:44:42.813Z,4.07
2023-03-07T09:49:50.145Z,4.20
2023-03-07T09:55:00.059Z,3.63
2023-03-07T10:00:12.353Z,4.30
2023-03-07T10:05:30.052Z,4.27
2023-03-07T10:10:39.967Z,4.47
2023-03-07T10:15:47.383Z,4.70
2023-03-07T10:20:58.215Z,4.63
2023-03-07T10:26:09.854Z,4.17
2023-03-07T10:31:17.519Z,4.77
2023-03-07T10:36:24.300Z,4.53
2023-03-07T10:41:28.370Z,4.80
2023-03-07T10:46:38.058Z,4.57
2023-03-07T10:52:02.412Z,5.03
2023-03-07T10:57:09.050Z,4.60
2023-03-07T11:02:32.928Z,4.63
2023-03-07T11:07:38.581Z,5.10
2023-03-07T11:12:47.188Z,4.90
2023-03-07T11:17:50.812Z,5.23
2023-03-07T11:23:18.673Z,5.20
2023-03-07T11:28:31.090Z,4.83
2023-03-07T11:33:58.506Z,4.57
2023-03-07T11:39:14.153Z,4.83
2023-03-07T11:44:32.346Z,4.17
2023-03-07T11:49:46.138Z,4.10
2023-03-07T11:55:03.018Z,4.50
2023-03-07T12:00:49.217Z,4.17
2023-03-07T12:06:33.204Z,4.47
2023-03-07T12:11:58.158Z,4.67
2023-03-07T12:17:12.810Z,4.47
2023-03-07T12:22:29.522Z,4.90
2023-03-07T12:27:43.065Z,4.13
2023-03-07T12:32:47.613Z,3.93
2023-03-07T12:37:55.707Z,4.10
2023-03-07T12:43:12.176Z,4.03
2023-03-07T12:48:22.387Z,3.87
2023-03-07T12:53:40.597Z,3.70
2023-03-07T12:58:51.076Z,5.03
2023-03-07T13:04:01.766Z,3.70
2023-03-07T13:09:05.360Z,4.00
2023-03-07T13:14:34.024Z,3.70
2023-03-07T13:19:53.073Z,3.70
2023-03-07T13:24:57.543Z,3.80
2023-03-07T13:30:18.352Z,3.53
2023-03-07T13:35:56.684Z,3.50
2023-03-07T13:41:01.714Z,3.80
2023-03-07T13:46:06.875Z,3.80
2023-03-07T13:51:14.602Z,4.20
2023-03-07T13:56:26.410Z,3.60
2023-03-07T14:01:34.276Z,3.50
2023-03-07T14:06:42.027Z,4.07
2023-03-07T14:11:53.301Z,4.07
2023-03-07T14:17:08.452Z,3.63
2023-03-07T14:22:25.295Z,4.07
2023-03-07T14:27:28.455Z,4.00
2023-03-07T14:32:35.483Z,2.93
2023-03-07T14:37:40.696Z,1.90
2023-03-07T14:42:52.942Z,1.87
2023-03-07T14:48:10.113Z,3.30
2023-03-07T14:53:20.438Z,2.00
2023-03-07T14:58:33.820Z,2.00
2023-03-07T15:03:36.816Z,2.33
2023-03-07T15:08:41.715Z,1.50
2023-03-07T15:13:48.004Z,1.40
2023-03-07T15:18:54.850Z,1.60
2023-03-07T15:23:59.796Z,2.53
2023-03-07T15:29:08.549Z,2.30
2023-03-07T15:34:21.651Z,2.10
2023-03-07T15:39:33.196Z,2.00
2023-03-07T15:44:39.795Z,1.93
2023-03-07T15:49:47.606Z,1.43
2023-03-07T15:54:54.852Z,1.40
2023-03-07T16:00:00.438Z,1.50
2023-03-07T16:05:06.253Z,1.63
2023-03-07T16:10:12.130Z,1.37
2023-03-07T16:15:17.222Z,1.90
2023-03-07T16:20:22.321Z,1.70
2023-03-07T16:25:30.799Z,1.60
2023-03-07T16:30:34.383Z,1.33
2023-03-07T16:35:37.662Z,2.53
2023-03-07T16:40:44.641Z,2.07
2023-03-07T16:45:48.347Z,2.10
2023-03-07T16:50:51.658Z,2.50
2023-03-07T16:56:00.042Z,3.13
2023-03-07T17:01:03.281Z,2.23
2023-03-07T17:06:08.803Z,2.40
2023-03-07T17:11:23.186Z,2.77
2023-03-07T17:16:30.362Z,2.87
2023-03-07T17:21:37.484Z,3.10
2023-03-07T17:26:44.648Z,3.00
2023-03-07T17:31:47.864Z,2.63
2023-03-07T17:36:51.292Z,2.53
2023-03-07T17:41:56.454Z,2.40
2023-03-07T17:47:00.563Z,2.77
2023-03-07T17:52:05.230Z,2.53
2023-03-07T17:57:09.782Z,3.07
2023-03-07T18:02:13.654Z,3.70
2023-03-07T18:07:18.342Z,3.03
2023-03-07T18:12:22.854Z,3.37
2023-03-07T18:17:26.970Z,3.60
2023-03-07T18:22:32.848Z,5.20
2023-03-07T18:27:37.668Z,5.70
2023-03-07T18:32:41.322Z,5.73
2023-03-07T18:37:45.526Z,5.97
2023-03-07T18:42:50.682Z,6.13
2023-03-07T18:47:54.794Z,5.77
2023-03-07T18:52:58.167Z,7.93
2023-03-07T18:58:10.729Z,7.17
2023-03-07T19:03:15.355Z,8.70
2023-03-07T19:08:18.793Z,8.20
2023-03-07T19:13:23.806Z,8.83
2023-03-07T19:18:27.098Z,7.90
2023-03-07T19:23:30.300Z,7.30
2023-03-07T19:28:35.819Z,6.70
2023-03-07T19:33:39.183Z,7.37
2023-03-07T19:38:42.890Z,8.13
2023-03-07T19:43:47.574Z,10.67
2023-03-07T19:48:51.059Z,10.90
2023-03-07T19:53:57.341Z,9.70
2023-03-07T19:59:03.544Z,9.63
2023-03-07T20:04:14.116Z,8.30
2023-03-07T20:09:17.545Z,7.00
2023-03-07T20:14:22.720Z,8.17
2023-03-07T20:19:26.044Z,7.03
2023-03-07T20:24:30.451Z,7.33
2023-03-07T20:29:34.993Z,7.10
2023-03-07T20:34:39.650Z,6.57
2023-03-07T20:39:43.857Z,5.80
2023-03-07T20:44:49.002Z,5.87
2023-03-07T20:49:52.156Z,5.20
2023-03-07T20:54:55.425Z,4.00
2023-03-07T21:00:00.522Z,3.00
2023-03-07T21:05:03.830Z,2.87
2023-03-07T21:10:07.753Z,2.50
2023-03-07T21:15:13.729Z,2.40
2023-03-07T21:20:18.550Z,2.60
2023-03-07T21:25:21.708Z,1.70
2023-03-07T21:30:26.346Z,1.13
2023-03-07T21:35:30.269Z,1.00
2023-03-07T21:40:33.770Z,0.93
2023-03-07T21:45:38.573Z,1.30
2023-03-07T21:50:43.431Z,1.10
2023-03-07T21:55:51.698Z,1.70
2023-03-07T22:00:56.989Z,2.00
2023-03-07T22:06:00.222Z,2.40
2023-03-07T22:11:05.437Z,4.30
2023-03-07T22:16:18.062Z,2.87
2023-03-07T22:21:23.468Z,3.30
2023-03-07T22:26:28.176Z,2.40
2023-03-07T22:31:32.832Z,2.17
2023-03-07T22:36:37.009Z,1.93
2023-03-07T22:41:40.156Z,2.13
2023-03-07T22:46:45.215Z,2.10
2023-03-07T22:51:48.526Z,1.80
2023-03-07T22:56:52.017Z,1.83
2023-03-07T23:01:56.491Z,2.00
2023-03-07T23:07:00.050Z,1.80
2023-03-07T23:12:03.280Z,1.83
2023-03-07T23:17:08.054Z,1.63
2023-03-07T23:22:11.553Z,2.50
2023-03-07T23:27:14.641Z,2.40
2023-03-07T23:32:19.308Z,2.40
2023-03-07T23:37:22.416Z,2.73
2023-03-07T23:42:25.595Z,2.50
2023-03-07T23:47:30.322Z,2.13
2023-03-07T23:52:33.719Z,2.03
2023-03-07T23:57:36.850Z,2.00
